sensor_id;sensor_type;location;lat;lon;timestamp;P1;durP1;ratioP1;P2;durP2;ratioP2
13147;SDS011;6639;50.956;4.242;2023-08-12T00:01:35;4.65;;;3.80;;
13147;SDS011;6639;50.956;4.242;2023-08-12T00:04:02;6.78;;;3.60;;
13147;SDS011;6639;50.956;4.242;2023-08-12T00:06:30;8.07;;;4.43;;
13147;SDS011;6639;50.956;4.242;2023-08-12T00:08:57;5.97;;;3.65;;
13147;SDS011;6639;50.956;4.242;2023-08-12T00:11:24;6.30;;;4.47;;
13147;SDS011;6639;50.956;4.242;2023-08-12T00:13:52;6.43;;;3.72;;
13147;SDS011;6639;50.956;4.242;2023-08-12T00:16:19;5.88;;;3.92;;
13147;SDS011;6639;50.956;4.242;2023-08-12T00:18:46;4.30;;;3.20;;
13147;SDS011;6639;50.956;4.242;2023-08-12T00:21:13;5.60;;;3.08;;
13147;SDS011;6639;50.956;4.242;2023-08-12T00:23:40;4.25;;;3.33;;
13147;SDS011;6639;50.956;4.242;2023-08-12T00:26:08;4.88;;;3.88;;
13147;SDS011;6639;50.956;4.242;2023-08-12T00:28:35;5.45;;;4.40;;
13147;SDS011;6639;50.956;4.242;2023-08-12T00:31:03;5.45;;;3.65;;
13147;SDS011;6639;50.956;4.242;2023-08-12T00:33:30;7.38;;;4.53;;
13147;SDS011;6639;50.956;4.242;2023-08-12T00:35:57;5.90;;;3.97;;
13147;SDS011;6639;50.956;4.242;2023-08-12T00:38:24;7.60;;;3.72;;
13147;SDS011;6639;50.956;4.242;2023-08-12T00:40:51;7.80;;;3.75;;
13147;SDS011;6639;50.956;4.242;2023-08-12T00:43:17;5.03;;;3.25;;
13147;SDS011;6639;50.956;4.242;2023-08-12T00:45:44;5.85;;;4.50;;
13147;SDS011;6639;50.956;4.242;2023-08-12T00:48:13;7.68;;;3.85;;
13147;SDS011;6639;50.956;4.242;2023-08-12T00:50:42;6.40;;;3.95;;
13147;SDS011;6639;50.956;4.242;2023-08-12T00:53:10;4.75;;;3.65;;
13147;SDS011;6639;50.956;4.242;2023-08-12T00:55:39;4.45;;;3.40;;
13147;SDS011;6639;50.956;4.242;2023-08-12T00:58:06;5.50;;;3.65;;
13147;SDS011;6639;50.956;4.242;2023-08-12T01:00:33;7.57;;;3.80;;
13147;SDS011;6639;50.956;4.242;2023-08-12T01:03:00;5.70;;;4.03;;
13147;SDS011;6639;50.956;4.242;2023-08-12T01:05:30;7.10;;;4.00;;
13147;SDS011;6639;50.956;4.242;2023-08-12T01:07:57;5.32;;;3.67;;
13147;SDS011;6639;50.956;4.242;2023-08-12T01:10:24;7.32;;;3.70;;
13147;SDS011;6639;50.956;4.242;2023-08-12T01:12:59;8.15;;;4.30;;
13147;SDS011;6639;50.956;4.242;2023-08-12T01:15:34;4.80;;;4.18;;
13147;SDS011;6639;50.956;4.242;2023-08-12T01:18:02;6.15;;;3.90;;
13147;SDS011;6639;50.956;4.242;2023-08-12T01:20:32;7.65;;;4.80;;
13147;SDS011;6639;50.956;4.242;2023-08-12T01:23:07;5.25;;;4.75;;
13147;SDS011;6639;50.956;4.242;2023-08-12T01:25:36;5.30;;;4.13;;
13147;SDS011;6639;50.956;4.242;2023-08-12T01:28:03;8.57;;;4.70;;
13147;SDS011;6639;50.956;4.242;2023-08-12T01:30:31;6.97;;;4.43;;
13147;SDS011;6639;50.956;4.242;2023-08-12T01:33:01;6.78;;;4.22;;
13147;SDS011;6639;50.956;4.242;2023-08-12T01:35:35;4.78;;;4.25;;
13147;SDS011;6639;50.956;4.242;2023-08-12T01:38:08;7.22;;;4.38;;
13147;SDS011;6639;50.956;4.242;2023-08-12T01:40:36;6.30;;;4.25;;
13147;SDS011;6639;50.956;4.242;2023-08-12T01:43:04;7.80;;;4.45;;
13147;SDS011;6639;50.956;4.242;2023-08-12T01:45:33;6.60;;;4.45;;
13147;SDS011;6639;50.956;4.242;2023-08-12T01:48:00;6.43;;;4.65;;
13147;SDS011;6639;50.956;4.242;2023-08-12T01:50:28;5.43;;;4.30;;
13147;SDS011;6639;50.956;4.242;2023-08-12T01:52:54;5.38;;;4.03;;
13147;SDS011;6639;50.956;4.242;2023-08-12T01:55:24;6.65;;;4.43;;
13147;SDS011;6639;50.956;4.242;2023-08-12T01:57:51;5.78;;;4.53;;
13147;SDS011;6639;50.956;4.242;2023-08-12T02:00:18;5.88;;;4.63;;
13147;SDS011;6639;50.956;4.242;2023-08-12T02:02:45;4.88;;;4.30;;
13147;SDS011;6639;50.956;4.242;2023-08-12T02:05:12;9.25;;;5.38;;
13147;SDS011;6639;50.956;4.242;2023-08-12T02:07:39;5.47;;;4.18;;
13147;SDS011;6639;50.956;4.242;2023-08-12T02:10:07;4.85;;;3.97;;
13147;SDS011;6639;50.956;4.242;2023-08-12T02:12:35;5.32;;;3.78;;
13147;SDS011;6639;50.956;4.242;2023-08-12T02:15:02;4.78;;;3.80;;
13147;SDS011;6639;50.956;4.242;2023-08-12T02:17:29;5.75;;;4.13;;
13147;SDS011;6639;50.956;4.242;2023-08-12T02:19:56;6.80;;;4.50;;
13147;SDS011;6639;50.956;4.242;2023-08-12T02:22:23;5.57;;;4.13;;
13147;SDS011;6639;50.956;4.242;2023-08-12T02:24:50;7.15;;;4.70;;
13147;SDS011;6639;50.956;4.242;2023-08-12T02:27:17;10.13;;;4.70;;
13147;SDS011;6639;50.956;4.242;2023-08-12T02:29:46;5.10;;;4.70;;
13147;SDS011;6639;50.956;4.242;2023-08-12T02:32:13;4.50;;;4.13;;
13147;SDS011;6639;50.956;4.242;2023-08-12T02:34:40;6.18;;;4.85;;
13147;SDS011;6639;50.956;4.242;2023-08-12T02:37:07;6.28;;;4.63;;
13147;SDS011;6639;50.956;4.242;2023-08-12T02:39:33;6.00;;;4.55;;
13147;SDS011;6639;50.956;4.242;2023-08-12T02:42:01;7.18;;;4.88;;
13147;SDS011;6639;50.956;4.242;2023-08-12T02:44:28;6.32;;;4.95;;
13147;SDS011;6639;50.956;4.242;2023-08-12T02:46:56;7.53;;;4.40;;
13147;SDS011;6639;50.956;4.242;2023-08-12T02:49:23;8.07;;;4.75;;
13147;SDS011;6639;50.956;4.242;2023-08-12T02:51:50;6.80;;;5.45;;
13147;SDS011;6639;50.956;4.242;2023-08-12T02:54:18;6.70;;;5.20;;
13147;SDS011;6639;50.956;4.242;2023-08-12T02:56:45;6.03;;;4.97;;
13147;SDS011;6639;50.956;4.242;2023-08-12T02:59:12;5.95;;;5.10;;
13147;SDS011;6639;50.956;4.242;2023-08-12T03:01:40;6.18;;;5.35;;
13147;SDS011;6639;50.956;4.242;2023-08-12T03:04:08;5.70;;;4.38;;
13147;SDS011;6639;50.956;4.242;2023-08-12T03:06:36;5.53;;;4.32;;
13147;SDS011;6639;50.956;4.242;2023-08-12T03:09:03;8.65;;;4.80;;
13147;SDS011;6639;50.956;4.242;2023-08-12T03:11:29;6.35;;;4.70;;
13147;SDS011;6639;50.956;4.242;2023-08-12T03:13:56;9.75;;;5.10;;
13147;SDS011;6639;50.956;4.242;2023-08-12T03:16:23;7.70;;;4.90;;
13147;SDS011;6639;50.956;4.242;2023-08-12T03:18:50;5.53;;;4.75;;
13147;SDS011;6639;50.956;4.242;2023-08-12T03:21:18;5.65;;;4.95;;
13147;SDS011;6639;50.956;4.242;2023-08-12T03:23:45;6.95;;;4.57;;
13147;SDS011;6639;50.956;4.242;2023-08-12T03:26:12;5.15;;;4.53;;
13147;SDS011;6639;50.956;4.242;2023-08-12T03:28:39;7.43;;;5.00;;
13147;SDS011;6639;50.956;4.242;2023-08-12T03:31:06;6.18;;;3.95;;
13147;SDS011;6639;50.956;4.242;2023-08-12T03:33:33;6.75;;;4.22;;
13147;SDS011;6639;50.956;4.242;2023-08-12T03:36:00;6.53;;;4.63;;
13147;SDS011;6639;50.956;4.242;2023-08-12T03:38:28;5.85;;;4.00;;
13147;SDS011;6639;50.956;4.242;2023-08-12T03:40:55;9.32;;;3.97;;
13147;SDS011;6639;50.956;4.242;2023-08-12T03:43:22;5.15;;;4.25;;
13147;SDS011;6639;50.956;4.242;2023-08-12T03:45:49;6.60;;;4.50;;
13147;SDS011;6639;50.956;4.242;2023-08-12T03:48:16;7.10;;;4.38;;
13147;SDS011;6639;50.956;4.242;2023-08-12T03:50:43;8.38;;;4.28;;
13147;SDS011;6639;50.956;4.242;2023-08-12T03:53:12;4.18;;;3.70;;
13147;SDS011;6639;50.956;4.242;2023-08-12T03:55:40;5.07;;;3.70;;
13147;SDS011;6639;50.956;4.242;2023-08-12T03:58:07;6.07;;;4.53;;
13147;SDS011;6639;50.956;4.242;2023-08-12T04:00:34;5.70;;;4.45;;
13147;SDS011;6639;50.956;4.242;2023-08-12T04:03:06;4.75;;;3.90;;
13147;SDS011;6639;50.956;4.242;2023-08-12T04:05:33;4.00;;;3.60;;
13147;SDS011;6639;50.956;4.242;2023-08-12T04:07:59;4.20;;;3.50;;
13147;SDS011;6639;50.956;4.242;2023-08-12T04:10:26;4.43;;;3.15;;
13147;SDS011;6639;50.956;4.242;2023-08-12T04:12:55;4.05;;;3.33;;
13147;SDS011;6639;50.956;4.242;2023-08-12T04:15:22;3.08;;;2.80;;
13147;SDS011;6639;50.956;4.242;2023-08-12T04:17:49;4.03;;;3.75;;
13147;SDS011;6639;50.956;4.242;2023-08-12T04:20:16;3.25;;;3.05;;
13147;SDS011;6639;50.956;4.242;2023-08-12T04:22:43;3.88;;;2.78;;
13147;SDS011;6639;50.956;4.242;2023-08-12T04:25:10;2.58;;;2.47;;
13147;SDS011;6639;50.956;4.242;2023-08-12T04:27:37;2.42;;;2.33;;
13147;SDS011;6639;50.956;4.242;2023-08-12T04:30:06;2.70;;;2.50;;
13147;SDS011;6639;50.956;4.242;2023-08-12T04:32:34;2.75;;;2.20;;
13147;SDS011;6639;50.956;4.242;2023-08-12T04:35:01;2.28;;;2.17;;
13147;SDS011;6639;50.956;4.242;2023-08-12T04:37:28;2.72;;;2.20;;
13147;SDS011;6639;50.956;4.242;2023-08-12T04:39:57;1.80;;;1.70;;
13147;SDS011;6639;50.956;4.242;2023-08-12T04:42:24;2.05;;;1.95;;
13147;SDS011;6639;50.956;4.242;2023-08-12T04:44:51;1.80;;;1.70;;
13147;SDS011;6639;50.956;4.242;2023-08-12T04:47:19;3.05;;;1.90;;
13147;SDS011;6639;50.956;4.242;2023-08-12T04:49:46;2.00;;;1.90;;
13147;SDS011;6639;50.956;4.242;2023-08-12T04:52:13;2.20;;;2.10;;
13147;SDS011;6639;50.956;4.242;2023-08-12T04:54:40;1.70;;;1.70;;
13147;SDS011;6639;50.956;4.242;2023-08-12T04:57:07;1.90;;;1.80;;
13147;SDS011;6639;50.956;4.242;2023-08-12T04:59:35;2.03;;;1.92;;
13147;SDS011;6639;50.956;4.242;2023-08-12T05:02:02;2.28;;;2.00;;
13147;SDS011;6639;50.956;4.242;2023-08-12T05:04:30;2.15;;;2.05;;
13147;SDS011;6639;50.956;4.242;2023-08-12T05:06:57;1.95;;;1.85;;
13147;SDS011;6639;50.956;4.242;2023-08-12T05:09:24;2.15;;;2.05;;
13147;SDS011;6639;50.956;4.242;2023-08-12T05:11:51;2.42;;;2.28;;
13147;SDS011;6639;50.956;4.242;2023-08-12T05:14:18;3.78;;;2.00;;
13147;SDS011;6639;50.956;4.242;2023-08-12T05:16:45;2.53;;;2.33;;
13147;SDS011;6639;50.956;4.242;2023-08-12T05:19:12;2.70;;;2.50;;
13147;SDS011;6639;50.956;4.242;2023-08-12T05:21:40;2.42;;;2.28;;
13147;SDS011;6639;50.956;4.242;2023-08-12T05:24:07;2.30;;;2.13;;
13147;SDS011;6639;50.956;4.242;2023-08-12T05:26:36;3.10;;;2.33;;
13147;SDS011;6639;50.956;4.242;2023-08-12T05:29:03;3.80;;;2.55;;
13147;SDS011;6639;50.956;4.242;2023-08-12T05:31:30;2.42;;;2.33;;
13147;SDS011;6639;50.956;4.242;2023-08-12T05:33:57;2.17;;;2.03;;
13147;SDS011;6639;50.956;4.242;2023-08-12T05:36:24;4.47;;;2.78;;
13147;SDS011;6639;50.956;4.242;2023-08-12T05:38:52;3.00;;;2.80;;
13147;SDS011;6639;50.956;4.242;2023-08-12T05:41:19;3.03;;;2.80;;
13147;SDS011;6639;50.956;4.242;2023-08-12T05:43:47;2.83;;;2.63;;
13147;SDS011;6639;50.956;4.242;2023-08-12T05:46:14;3.20;;;3.00;;
13147;SDS011;6639;50.956;4.242;2023-08-12T05:48:41;3.30;;;3.00;;
13147;SDS011;6639;50.956;4.242;2023-08-12T05:51:08;3.22;;;3.03;;
13147;SDS011;6639;50.956;4.242;2023-08-12T05:53:35;3.00;;;2.80;;
13147;SDS011;6639;50.956;4.242;2023-08-12T05:56:03;3.38;;;3.08;;
13147;SDS011;6639;50.956;4.242;2023-08-12T05:58:30;3.35;;;3.05;;
13147;SDS011;6639;50.956;4.242;2023-08-12T06:00:57;2.88;;;2.67;;
13147;SDS011;6639;50.956;4.242;2023-08-12T06:03:24;2.65;;;2.45;;
13147;SDS011;6639;50.956;4.242;2023-08-12T06:05:51;2.78;;;2.58;;
13147;SDS011;6639;50.956;4.242;2023-08-12T06:08:18;3.05;;;2.85;;
13147;SDS011;6639;50.956;4.242;2023-08-12T06:10:45;2.50;;;2.35;;
13147;SDS011;6639;50.956;4.242;2023-08-12T06:13:13;2.55;;;2.40;;
13147;SDS011;6639;50.956;4.242;2023-08-12T06:15:40;3.28;;;2.80;;
13147;SDS011;6639;50.956;4.242;2023-08-12T06:18:07;4.47;;;2.75;;
13147;SDS011;6639;50.956;4.242;2023-08-12T06:20:34;3.13;;;2.83;;
13147;SDS011;6639;50.956;4.242;2023-08-12T06:23:01;2.70;;;2.50;;
13147;SDS011;6639;50.956;4.242;2023-08-12T06:25:28;3.92;;;2.75;;
13147;SDS011;6639;50.956;4.242;2023-08-12T06:27:55;3.00;;;2.70;;
13147;SDS011;6639;50.956;4.242;2023-08-12T06:30:25;2.33;;;2.20;;
13147;SDS011;6639;50.956;4.242;2023-08-12T06:32:52;2.67;;;2.50;;
13147;SDS011;6639;50.956;4.242;2023-08-12T06:35:19;2.78;;;2.58;;
13147;SDS011;6639;50.956;4.242;2023-08-12T06:37:45;2.78;;;2.58;;
13147;SDS011;6639;50.956;4.242;2023-08-12T06:40:13;2.45;;;2.22;;
13147;SDS011;6639;50.956;4.242;2023-08-12T06:42:40;2.88;;;2.67;;
13147;SDS011;6639;50.956;4.242;2023-08-12T06:45:07;4.28;;;2.90;;
13147;SDS011;6639;50.956;4.242;2023-08-12T06:47:36;2.83;;;2.63;;
13147;SDS011;6639;50.956;4.242;2023-08-12T06:50:03;3.40;;;2.90;;
13147;SDS011;6639;50.956;4.242;2023-08-12T06:52:31;2.95;;;2.75;;
13147;SDS011;6639;50.956;4.242;2023-08-12T06:54:58;1.83;;;1.73;;
13147;SDS011;6639;50.956;4.242;2023-08-12T06:57:24;1.77;;;1.67;;
13147;SDS011;6639;50.956;4.242;2023-08-12T06:59:51;1.50;;;1.40;;
13147;SDS011;6639;50.956;4.242;2023-08-12T07:02:18;1.77;;;1.45;;
13147;SDS011;6639;50.956;4.242;2023-08-12T07:04:47;1.95;;;1.80;;
13147;SDS011;6639;50.956;4.242;2023-08-12T07:07:13;1.77;;;1.67;;
13147;SDS011;6639;50.956;4.242;2023-08-12T07:09:40;3.30;;;1.38;;
13147;SDS011;6639;50.956;4.242;2023-08-12T07:12:07;2.10;;;1.98;;
13147;SDS011;6639;50.956;4.242;2023-08-12T07:14:34;3.28;;;2.03;;
13147;SDS011;6639;50.956;4.242;2023-08-12T07:17:02;1.95;;;1.77;;
13147;SDS011;6639;50.956;4.242;2023-08-12T07:19:29;1.98;;;1.75;;
13147;SDS011;6639;50.956;4.242;2023-08-12T07:21:57;2.70;;;2.50;;
13147;SDS011;6639;50.956;4.242;2023-08-12T07:24:24;2.38;;;2.20;;
13147;SDS011;6639;50.956;4.242;2023-08-12T07:26:51;3.45;;;2.20;;
13147;SDS011;6639;50.956;4.242;2023-08-12T07:29:18;3.03;;;2.35;;
13147;SDS011;6639;50.956;4.242;2023-08-12T07:31:45;2.85;;;2.30;;
13147;SDS011;6639;50.956;4.242;2023-08-12T07:34:12;2.63;;;2.42;;
13147;SDS011;6639;50.956;4.242;2023-08-12T07:36:39;2.58;;;2.45;;
13147;SDS011;6639;50.956;4.242;2023-08-12T07:39:08;3.53;;;2.42;;
13147;SDS011;6639;50.956;4.242;2023-08-12T07:41:34;3.25;;;2.10;;
13147;SDS011;6639;50.956;4.242;2023-08-12T07:44:02;2.17;;;2.00;;
13147;SDS011;6639;50.956;4.242;2023-08-12T07:46:30;2.35;;;2.20;;
13147;SDS011;6639;50.956;4.242;2023-08-12T07:48:57;2.45;;;2.25;;
13147;SDS011;6639;50.956;4.242;2023-08-12T07:51:24;2.25;;;2.05;;
13147;SDS011;6639;50.956;4.242;2023-08-12T07:53:50;2.90;;;2.70;;
13147;SDS011;6639;50.956;4.242;2023-08-12T07:56:19;3.22;;;2.50;;
13147;SDS011;6639;50.956;4.242;2023-08-12T07:58:46;3.75;;;3.00;;
13147;SDS011;6639;50.956;4.242;2023-08-12T08:01:13;3.38;;;3.10;;
13147;SDS011;6639;50.956;4.242;2023-08-12T08:03:40;4.38;;;3.65;;
13147;SDS011;6639;50.956;4.242;2023-08-12T08:06:06;3.92;;;3.67;;
13147;SDS011;6639;50.956;4.242;2023-08-12T08:08:33;4.38;;;3.97;;
13147;SDS011;6639;50.956;4.242;2023-08-12T08:11:00;4.55;;;4.22;;
13147;SDS011;6639;50.956;4.242;2023-08-12T08:13:28;5.45;;;5.05;;
13147;SDS011;6639;50.956;4.242;2023-08-12T08:15:56;5.65;;;5.03;;
13147;SDS011;6639;50.956;4.242;2023-08-12T08:18:22;6.32;;;5.78;;
13147;SDS011;6639;50.956;4.242;2023-08-12T08:20:49;6.25;;;5.40;;
13147;SDS011;6639;50.956;4.242;2023-08-12T08:23:16;5.57;;;5.13;;
13147;SDS011;6639;50.956;4.242;2023-08-12T08:25:43;6.03;;;5.53;;
13147;SDS011;6639;50.956;4.242;2023-08-12T08:28:10;6.10;;;5.53;;
13147;SDS011;6639;50.956;4.242;2023-08-12T08:30:39;4.97;;;4.57;;
13147;SDS011;6639;50.956;4.242;2023-08-12T08:33:05;4.88;;;4.43;;
13147;SDS011;6639;50.956;4.242;2023-08-12T08:35:32;4.30;;;4.00;;
13147;SDS011;6639;50.956;4.242;2023-08-12T08:37:59;3.92;;;3.60;;
13147;SDS011;6639;50.956;4.242;2023-08-12T08:40:26;3.65;;;3.20;;
13147;SDS011;6639;50.956;4.242;2023-08-12T08:42:54;3.38;;;3.08;;
13147;SDS011;6639;50.956;4.242;2023-08-12T08:45:25;3.25;;;2.60;;
13147;SDS011;6639;50.956;4.242;2023-08-12T08:47:54;3.35;;;3.00;;
13147;SDS011;6639;50.956;4.242;2023-08-12T08:50:21;3.67;;;3.22;;
13147;SDS011;6639;50.956;4.242;2023-08-12T08:52:49;3.53;;;2.45;;
13147;SDS011;6639;50.956;4.242;2023-08-12T08:55:18;4.80;;;2.20;;
13147;SDS011;6639;50.956;4.242;2023-08-12T08:57:46;3.92;;;2.40;;
13147;SDS011;6639;50.956;4.242;2023-08-12T09:00:14;1.75;;;1.60;;
13147;SDS011;6639;50.956;4.242;2023-08-12T09:02:41;2.08;;;1.77;;
13147;SDS011;6639;50.956;4.242;2023-08-12T09:05:11;2.65;;;1.80;;
13147;SDS011;6639;50.956;4.242;2023-08-12T09:07:41;3.40;;;1.92;;
13147;SDS011;6639;50.956;4.242;2023-08-12T09:10:09;3.83;;;1.95;;
13147;SDS011;6639;50.956;4.242;2023-08-12T09:12:37;1.80;;;1.50;;
13147;SDS011;6639;50.956;4.242;2023-08-12T09:15:05;9.05;;;2.47;;
13147;SDS011;6639;50.956;4.242;2023-08-12T09:17:32;2.65;;;1.77;;
13147;SDS011;6639;50.956;4.242;2023-08-12T09:19:59;2.45;;;1.63;;
13147;SDS011;6639;50.956;4.242;2023-08-12T09:22:27;3.10;;;1.90;;
13147;SDS011;6639;50.956;4.242;2023-08-12T09:24:56;4.00;;;1.75;;
13147;SDS011;6639;50.956;4.242;2023-08-12T09:27:23;3.33;;;2.00;;
13147;SDS011;6639;50.956;4.242;2023-08-12T09:29:51;4.20;;;2.35;;
13147;SDS011;6639;50.956;4.242;2023-08-12T09:32:22;6.07;;;1.90;;
13147;SDS011;6639;50.956;4.242;2023-08-12T09:34:50;3.90;;;1.92;;
13147;SDS011;6639;50.956;4.242;2023-08-12T09:37:19;2.72;;;1.70;;
13147;SDS011;6639;50.956;4.242;2023-08-12T09:39:48;4.90;;;2.42;;
13147;SDS011;6639;50.956;4.242;2023-08-12T09:42:15;3.67;;;2.03;;
13147;SDS011;6639;50.956;4.242;2023-08-12T09:44:43;4.03;;;2.20;;
13147;SDS011;6639;50.956;4.242;2023-08-12T09:47:11;3.95;;;2.30;;
13147;SDS011;6639;50.956;4.242;2023-08-12T09:49:38;3.03;;;2.03;;
13147;SDS011;6639;50.956;4.242;2023-08-12T09:52:06;3.88;;;2.30;;
13147;SDS011;6639;50.956;4.242;2023-08-12T09:54:34;2.97;;;1.83;;
13147;SDS011;6639;50.956;4.242;2023-08-12T09:57:04;2.53;;;1.55;;
13147;SDS011;6639;50.956;4.242;2023-08-12T09:59:33;4.28;;;1.85;;
13147;SDS011;6639;50.956;4.242;2023-08-12T10:02:01;2.42;;;1.75;;
13147;SDS011;6639;50.956;4.242;2023-08-12T10:04:33;5.85;;;2.00;;
13147;SDS011;6639;50.956;4.242;2023-08-12T10:07:03;4.10;;;1.50;;
13147;SDS011;6639;50.956;4.242;2023-08-12T10:09:31;2.22;;;1.52;;
13147;SDS011;6639;50.956;4.242;2023-08-12T10:11:58;2.78;;;1.50;;
13147;SDS011;6639;50.956;4.242;2023-08-12T10:14:27;1.52;;;1.33;;
13147;SDS011;6639;50.956;4.242;2023-08-12T10:16:54;1.80;;;1.02;;
13147;SDS011;6639;50.956;4.242;2023-08-12T10:19:22;4.20;;;1.70;;
13147;SDS011;6639;50.956;4.242;2023-08-12T10:21:53;2.78;;;1.55;;
13147;SDS011;6639;50.956;4.242;2023-08-12T10:24:22;2.28;;;1.80;;
13147;SDS011;6639;50.956;4.242;2023-08-12T10:26:51;2.85;;;1.30;;
13147;SDS011;6639;50.956;4.242;2023-08-12T10:29:18;3.45;;;1.70;;
13147;SDS011;6639;50.956;4.242;2023-08-12T10:31:47;3.47;;;1.48;;
13147;SDS011;6639;50.956;4.242;2023-08-12T10:34:18;3.50;;;1.50;;
13147;SDS011;6639;50.956;4.242;2023-08-12T10:36:46;4.03;;;1.67;;
13147;SDS011;6639;50.956;4.242;2023-08-12T10:39:13;4.07;;;1.45;;
13147;SDS011;6639;50.956;4.242;2023-08-12T10:41:47;3.72;;;1.60;;
13147;SDS011;6639;50.956;4.242;2023-08-12T10:44:17;2.20;;;1.20;;
13147;SDS011;6639;50.956;4.242;2023-08-12T10:46:51;3.78;;;1.15;;
13147;SDS011;6639;50.956;4.242;2023-08-12T10:49:18;3.45;;;1.30;;
13147;SDS011;6639;50.956;4.242;2023-08-12T10:51:47;2.78;;;1.67;;
13147;SDS011;6639;50.956;4.242;2023-08-12T10:54:16;1.92;;;1.40;;
13147;SDS011;6639;50.956;4.242;2023-08-12T10:59:48;3.67;;;1.63;;
13147;SDS011;6639;50.956;4.242;2023-08-12T11:02:18;2.88;;;1.65;;
13147;SDS011;6639;50.956;4.242;2023-08-12T11:04:48;2.50;;;1.15;;
13147;SDS011;6639;50.956;4.242;2023-08-12T11:07:17;5.07;;;1.70;;
13147;SDS011;6639;50.956;4.242;2023-08-12T11:09:45;2.72;;;1.40;;
13147;SDS011;6639;50.956;4.242;2023-08-12T11:12:16;2.65;;;1.50;;
13147;SDS011;6639;50.956;4.242;2023-08-12T11:14:47;1.58;;;1.20;;
13147;SDS011;6639;50.956;4.242;2023-08-12T11:17:15;5.47;;;1.67;;
13147;SDS011;6639;50.956;4.242;2023-08-12T11:19:43;4.03;;;1.83;;
13147;SDS011;6639;50.956;4.242;2023-08-12T11:22:10;4.68;;;1.63;;
13147;SDS011;6639;50.956;4.242;2023-08-12T11:24:39;4.05;;;1.42;;
13147;SDS011;6639;50.956;4.242;2023-08-12T11:27:08;2.17;;;1.02;;
13147;SDS011;6639;50.956;4.242;2023-08-12T11:29:37;2.85;;;1.30;;
13147;SDS011;6639;50.956;4.242;2023-08-12T11:32:05;3.83;;;1.40;;
13147;SDS011;6639;50.956;4.242;2023-08-12T11:34:32;2.90;;;1.27;;
13147;SDS011;6639;50.956;4.242;2023-08-12T11:37:00;3.88;;;1.65;;
13147;SDS011;6639;50.956;4.242;2023-08-12T11:39:29;2.72;;;1.48;;
13147;SDS011;6639;50.956;4.242;2023-08-12T11:41:56;3.65;;;1.45;;
13147;SDS011;6639;50.956;4.242;2023-08-12T11:44:23;2.35;;;1.50;;
13147;SDS011;6639;50.956;4.242;2023-08-12T11:46:50;3.45;;;1.50;;
13147;SDS011;6639;50.956;4.242;2023-08-12T11:49:17;3.03;;;1.45;;
13147;SDS011;6639;50.956;4.242;2023-08-12T11:51:44;5.20;;;1.65;;
13147;SDS011;6639;50.956;4.242;2023-08-12T11:54:15;2.13;;;1.23;;
13147;SDS011;6639;50.956;4.242;2023-08-12T11:56:42;2.58;;;1.38;;
13147;SDS011;6639;50.956;4.242;2023-08-12T11:59:10;3.40;;;1.75;;
13147;SDS011;6639;50.956;4.242;2023-08-12T12:01:37;2.35;;;1.50;;
13147;SDS011;6639;50.956;4.242;2023-08-12T12:04:04;2.72;;;1.42;;
13147;SDS011;6639;50.956;4.242;2023-08-12T12:06:31;2.30;;;1.33;;
13147;SDS011;6639;50.956;4.242;2023-08-12T12:09:02;2.20;;;1.30;;
13147;SDS011;6639;50.956;4.242;2023-08-12T12:11:33;4.97;;;1.58;;
13147;SDS011;6639;50.956;4.242;2023-08-12T12:14:01;1.92;;;1.15;;
13147;SDS011;6639;50.956;4.242;2023-08-12T12:16:36;2.42;;;1.25;;
13147;SDS011;6639;50.956;4.242;2023-08-12T12:19:05;3.40;;;1.35;;
13147;SDS011;6639;50.956;4.242;2023-08-12T12:21:38;4.20;;;1.30;;
13147;SDS011;6639;50.956;4.242;2023-08-12T12:24:06;2.20;;;1.40;;
13147;SDS011;6639;50.956;4.242;2023-08-12T12:26:35;2.53;;;1.50;;
13147;SDS011;6639;50.956;4.242;2023-08-12T12:29:02;2.60;;;1.48;;
13147;SDS011;6639;50.956;4.242;2023-08-12T12:31:31;2.88;;;1.48;;
13147;SDS011;6639;50.956;4.242;2023-08-12T12:33:59;2.83;;;1.50;;
13147;SDS011;6639;50.956;4.242;2023-08-12T12:36:26;2.88;;;1.50;;
13147;SDS011;6639;50.956;4.242;2023-08-12T12:38:53;2.28;;;1.27;;
13147;SDS011;6639;50.956;4.242;2023-08-12T12:41:20;3.17;;;1.77;;
13147;SDS011;6639;50.956;4.242;2023-08-12T12:43:48;2.25;;;1.40;;
13147;SDS011;6639;50.956;4.242;2023-08-12T12:46:15;2.28;;;1.42;;
13147;SDS011;6639;50.956;4.242;2023-08-12T12:48:42;2.00;;;1.40;;
13147;SDS011;6639;50.956;4.242;2023-08-12T12:51:10;2.28;;;1.27;;
13147;SDS011;6639;50.956;4.242;2023-08-12T12:53:37;4.47;;;1.60;;
13147;SDS011;6639;50.956;4.242;2023-08-12T12:56:04;3.97;;;1.60;;
13147;SDS011;6639;50.956;4.242;2023-08-12T12:58:31;2.83;;;1.25;;
13147;SDS011;6639;50.956;4.242;2023-08-12T13:01:00;3.95;;;1.10;;
13147;SDS011;6639;50.956;4.242;2023-08-12T13:03:27;1.52;;;1.13;;
13147;SDS011;6639;50.956;4.242;2023-08-12T13:05:55;3.58;;;1.10;;
13147;SDS011;6639;50.956;4.242;2023-08-12T13:08:23;3.92;;;1.20;;
13147;SDS011;6639;50.956;4.242;2023-08-12T13:10:50;2.90;;;1.60;;
13147;SDS011;6639;50.956;4.242;2023-08-12T13:13:17;3.35;;;1.30;;
13147;SDS011;6639;50.956;4.242;2023-08-12T13:15:45;2.53;;;1.70;;
13147;SDS011;6639;50.956;4.242;2023-08-12T13:18:13;3.28;;;1.65;;
13147;SDS011;6639;50.956;4.242;2023-08-12T13:20:40;3.67;;;1.20;;
13147;SDS011;6639;50.956;4.242;2023-08-12T13:23:07;1.98;;;1.30;;
13147;SDS011;6639;50.956;4.242;2023-08-12T13:25:34;2.42;;;1.33;;
13147;SDS011;6639;50.956;4.242;2023-08-12T13:28:01;3.60;;;1.55;;
13147;SDS011;6639;50.956;4.242;2023-08-12T13:30:28;2.95;;;1.38;;
13147;SDS011;6639;50.956;4.242;2023-08-12T13:32:56;5.03;;;1.92;;
13147;SDS011;6639;50.956;4.242;2023-08-12T13:35:24;2.88;;;1.58;;
13147;SDS011;6639;50.956;4.242;2023-08-12T13:37:51;2.35;;;1.40;;
13147;SDS011;6639;50.956;4.242;2023-08-12T13:40:18;2.22;;;1.27;;
13147;SDS011;6639;50.956;4.242;2023-08-12T13:42:45;1.88;;;1.45;;
13147;SDS011;6639;50.956;4.242;2023-08-12T13:45:13;4.47;;;1.63;;
13147;SDS011;6639;50.956;4.242;2023-08-12T13:47:40;3.38;;;1.50;;
13147;SDS011;6639;50.956;4.242;2023-08-12T13:50:07;2.15;;;1.33;;
13147;SDS011;6639;50.956;4.242;2023-08-12T13:52:35;2.35;;;1.30;;
13147;SDS011;6639;50.956;4.242;2023-08-12T13:55:03;3.15;;;1.45;;
13147;SDS011;6639;50.956;4.242;2023-08-12T13:57:30;3.00;;;1.30;;
13147;SDS011;6639;50.956;4.242;2023-08-12T13:59:57;2.58;;;1.60;;
13147;SDS011;6639;50.956;4.242;2023-08-12T14:02:24;4.13;;;1.42;;
13147;SDS011;6639;50.956;4.242;2023-08-12T14:04:51;3.83;;;1.83;;
13147;SDS011;6639;50.956;4.242;2023-08-12T14:07:18;5.55;;;2.35;;
13147;SDS011;6639;50.956;4.242;2023-08-12T14:09:47;2.78;;;1.17;;
13147;SDS011;6639;50.956;4.242;2023-08-12T14:12:14;3.10;;;1.88;;
13147;SDS011;6639;50.956;4.242;2023-08-12T14:14:41;3.50;;;1.52;;
13147;SDS011;6639;50.956;4.242;2023-08-12T14:17:08;4.57;;;1.77;;
13147;SDS011;6639;50.956;4.242;2023-08-12T14:19:38;4.13;;;1.80;;
13147;SDS011;6639;50.956;4.242;2023-08-12T14:22:06;2.42;;;1.40;;
13147;SDS011;6639;50.956;4.242;2023-08-12T14:24:33;2.17;;;1.55;;
13147;SDS011;6639;50.956;4.242;2023-08-12T14:27:01;3.28;;;1.30;;
13147;SDS011;6639;50.956;4.242;2023-08-12T14:29:29;4.47;;;1.50;;
13147;SDS011;6639;50.956;4.242;2023-08-12T14:31:56;3.75;;;1.90;;
13147;SDS011;6639;50.956;4.242;2023-08-12T14:34:23;4.35;;;1.58;;
13147;SDS011;6639;50.956;4.242;2023-08-12T14:36:50;4.30;;;2.15;;
13147;SDS011;6639;50.956;4.242;2023-08-12T14:39:17;3.65;;;1.80;;
13147;SDS011;6639;50.956;4.242;2023-08-12T14:41:44;4.53;;;2.10;;
13147;SDS011;6639;50.956;4.242;2023-08-12T14:44:13;2.00;;;1.38;;
13147;SDS011;6639;50.956;4.242;2023-08-12T14:46:40;4.70;;;2.08;;
13147;SDS011;6639;50.956;4.242;2023-08-12T14:49:07;2.65;;;1.73;;
13147;SDS011;6639;50.956;4.242;2023-08-12T14:51:35;3.00;;;2.10;;
13147;SDS011;6639;50.956;4.242;2023-08-12T14:54:02;3.33;;;1.70;;
13147;SDS011;6639;50.956;4.242;2023-08-12T14:56:29;2.78;;;1.63;;
13147;SDS011;6639;50.956;4.242;2023-08-12T14:58:55;4.15;;;1.75;;
13147;SDS011;6639;50.956;4.242;2023-08-12T15:01:24;5.55;;;2.00;;
13147;SDS011;6639;50.956;4.242;2023-08-12T15:03:53;4.38;;;1.90;;
13147;SDS011;6639;50.956;4.242;2023-08-12T15:06:21;5.80;;;2.15;;